sensor_id;sensor_type;location;lat;lon;timestamp;pressure;altitude;pressure_sealevel;temperature;humidity
5484;BME280;2764;48.794;8.326;2023-02-19T00:00:47;77297.38;;;-140.34;92.02
5484;BME280;2764;48.794;8.326;2023-02-19T00:01:51;77287.34;;;-140.34;92.80
5484;BME280;2764;48.794;8.326;2023-02-19T00:02:55;77283.31;;;-140.34;93.10
5484;BME280;2764;48.794;8.326;2023-02-19T00:04:04;77287.34;;;-140.34;94.12
5484;BME280;2764;48.794;8.326;2023-02-19T00:05:10;77295.38;;;-140.34;96.06
5484;BME280;2764;48.794;8.326;2023-02-19T00:06:14;77315.50;;;-140.34;96.53
5484;BME280;2764;48.794;8.326;2023-02-19T00:07:16;77301.41;;;-140.34;96.57
5484;BME280;2764;48.794;8.326;2023-02-19T00:08:18;77313.47;;;-140.34;97.50
5484;BME280;2764;48.794;8.326;2023-02-19T00:09:20;77317.50;;;-140.34;98.07
5484;BME280;2764;48.794;8.326;2023-02-19T00:10:22;77319.50;;;-140.34;99.06
5484;BME280;2764;48.794;8.326;2023-02-19T00:11:27;77321.53;;;-140.34;100.00
5484;BME280;2764;48.794;8.326;2023-02-19T00:12:30;77337.63;;;-140.34;100.00
5484;BME280;2764;48.794;8.326;2023-02-19T00:13:36;77341.63;;;-140.34;100.00
5484;BME280;2764;48.794;8.326;2023-02-19T00:14:38;77341.63;;;-140.34;100.00
5484;BME280;2764;48.794;8.326;2023-02-19T00:15:41;77343.66;;;-140.34;100.00
5484;BME280;2764;48.794;8.326;2023-02-19T00:16:48;77351.69;;;-140.34;100.00
5484;BME280;2764;48.794;8.326;2023-02-19T00:17:50;77351.69;;;-140.34;100.00
5484;BME280;2764;48.794;8.326;2023-02-19T00:18:56;77345.66;;;-140.34;100.00
5484;BME280;2764;48.794;8.326;2023-02-19T00:20:01;77347.66;;;-140.34;100.00
5484;BME280;2764;48.794;8.326;2023-02-19T00:21:04;77349.69;;;-140.34;100.00
5484;BME280;2764;48.794;8.326;2023-02-19T00:22:06;77355.72;;;-140.34;100.00
5484;BME280;2764;48.794;8.326;2023-02-19T00:23:15;77375.81;;;-140.34;100.00
5484;BME280;2764;48.794;8.326;2023-02-19T00:24:20;77383.88;;;-140.34;100.00
5484;BME280;2764;48.794;8.326;2023-02-19T00:25:24;77361.75;;;-140.34;100.00
5484;BME280;2764;48.794;8.326;2023-02-19T00:26:26;77373.81;;;-140.34;100.00
5484;BME280;2764;48.794;8.326;2023-02-19T00:27:29;77371.81;;;-140.34;100.00
5484;BME280;2764;48.794;8.326;2023-02-19T00:28:32;77377.84;;;-140.34;100.00
5484;BME280;2764;48.794;8.326;2023-02-19T00:29:34;77375.81;;;-140.34;100.00
5484;BME280;2764;48.794;8.326;2023-02-19T00:30:37;77371.81;;;-140.34;100.00
5484;BME280;2764;48.794;8.326;2023-02-19T00:31:39;77375.81;;;-140.34;100.00
5484;BME280;2764;48.794;8.326;2023-02-19T00:32:49;77367.78;;;-140.34;100.00
5484;BME280;2764;48.794;8.326;2023-02-19T00:33:55;77367.78;;;-140.34;100.00
5484;BME280;2764;48.794;8.326;2023-02-19T00:34:59;77371.81;;;-140.34;100.00
5484;BME280;2764;48.794;8.326;2023-02-19T00:36:02;77367.78;;;-140.34;100.00
5484;BME280;2764;48.794;8.326;2023-02-19T00:37:05;77367.78;;;-140.34;100.00
5484;BME280;2764;48.794;8.326;2023-02-19T00:38:07;77365.75;;;-140.34;100.00
5484;BME280;2764;48.794;8.326;2023-02-19T00:39:13;77369.78;;;-140.34;100.00
5484;BME280;2764;48.794;8.326;2023-02-19T00:40:20;77367.78;;;-140.34;100.00
5484;BME280;2764;48.794;8.326;2023-02-19T00:41:28;77377.84;;;-140.34;100.00
5484;BME280;2764;48.794;8.326;2023-02-19T00:42:31;77363.75;;;-140.34;100.00
5484;BME280;2764;48.794;8.326;2023-02-19T00:43:33;77365.75;;;-140.34;100.00
5484;BME280;2764;48.794;8.326;2023-02-19T00:44:37;77373.81;;;-140.34;100.00
5484;BME280;2764;48.794;8.326;2023-02-19T00:45:45;77373.81;;;-140.34;100.00
5484;BME280;2764;48.794;8.326;2023-02-19T00:46:54;77377.84;;;-140.34;100.00
5484;BME280;2764;48.794;8.326;2023-02-19T00:48:02;77377.84;;;-140.34;100.00
5484;BME280;2764;48.794;8.326;2023-02-19T00:49:14;77375.81;;;-140.34;100.00
5484;BME280;2764;48.794;8.326;2023-02-19T00:50:29;77373.81;;;-140.34;100.00
5484;BME280;2764;48.794;8.326;2023-02-19T00:51:34;77373.81;;;-140.34;100.00
5484;BME280;2764;48.794;8.326;2023-02-19T00:52:38;77371.81;;;-140.34;100.00
5484;BME280;2764;48.794;8.326;2023-02-19T00:53:41;77375.81;;;-140.34;100.00
5484;BME280;2764;48.794;8.326;2023-02-19T00:54:43;77377.84;;;-140.34;100.00
5484;BME280;2764;48.794;8.326;2023-02-19T00:55:45;77375.81;;;-140.34;100.00
5484;BME280;2764;48.794;8.326;2023-02-19T00:56:50;77367.78;;;-140.34;100.00
5484;BME280;2764;48.794;8.326;2023-02-19T00:57:55;77375.81;;;-140.34;100.00
5484;BME280;2764;48.794;8.326;2023-02-19T00:59:00;77371.81;;;-140.34;100.00
5484;BME280;2764;48.794;8.326;2023-02-19T01:00:03;77381.84;;;-140.34;100.00
5484;BME280;2764;48.794;8.326;2023-02-19T01:01:12;77377.84;;;-140.34;100.00
5484;BME280;2764;48.794;8.326;2023-02-19T01:02:20;77375.81;;;-140.34;100.00
5484;BME280;2764;48.794;8.326;2023-02-19T01:03:25;77367.78;;;-140.34;100.00
5484;BME280;2764;48.794;8.326;2023-02-19T01:04:27;77363.75;;;-140.34;100.00
5484;BME280;2764;48.794;8.326;2023-02-19T01:05:33;77361.75;;;-140.34;100.00
5484;BME280;2764;48.794;8.326;2023-02-19T01:06:38;77355.72;;;-140.34;100.00
5484;BME280;2764;48.794;8.326;2023-02-19T01:07:42;77363.75;;;-140.34;100.00
5484;BME280;2764;48.794;8.326;2023-02-19T01:08:44;77357.72;;;-140.34;100.00
5484;BME280;2764;48.794;8.326;2023-02-19T01:09:55;77363.75;;;-140.34;100.00
5484;BME280;2764;48.794;8.326;2023-02-19T01:10:57;77397.94;;;-140.34;100.00
5484;BME280;2764;48.794;8.326;2023-02-19T01:11:59;77371.81;;;-140.34;100.00
5484;BME280;2764;48.794;8.326;2023-02-19T01:13:02;77371.81;;;-140.34;100.00
5484;BME280;2764;48.794;8.326;2023-02-19T01:14:07;77375.81;;;-140.34;100.00
5484;BME280;2764;48.794;8.326;2023-02-19T01:15:10;77373.81;;;-140.34;100.00
5484;BME280;2764;48.794;8.326;2023-02-19T01:16:20;77375.81;;;-140.34;100.00
5484;BME280;2764;48.794;8.326;2023-02-19T01:17:24;77373.81;;;-140.34;100.00
5484;BME280;2764;48.794;8.326;2023-02-19T01:18:26;77371.81;;;-140.34;100.00
5484;BME280;2764;48.794;8.326;2023-02-19T01:19:28;77383.88;;;-140.34;100.00
5484;BME280;2764;48.794;8.326;2023-02-19T01:20:29;77375.81;;;-140.34;100.00
5484;BME280;2764;48.794;8.326;2023-02-19T01:21:34;77375.81;;;-140.34;100.00
5484;BME280;2764;48.794;8.326;2023-02-19T01:22:35;77375.81;;;-140.34;100.00
5484;BME280;2764;48.794;8.326;2023-02-19T01:23:40;77385.88;;;-140.34;100.00
5484;BME280;2764;48.794;8.326;2023-02-19T01:24:42;77379.84;;;-140.34;100.00
5484;BME280;2764;48.794;8.326;2023-02-19T01:25:45;77383.88;;;-140.34;100.00
5484;BME280;2764;48.794;8.326;2023-02-19T01:26:46;77379.84;;;-140.34;100.00
5484;BME280;2764;48.794;8.326;2023-02-19T01:27:48;77377.84;;;-140.34;100.00
5484;BME280;2764;48.794;8.326;2023-02-19T01:28:51;77383.88;;;-140.34;100.00
5484;BME280;2764;48.794;8.326;2023-02-19T01:29:53;77383.88;;;-140.34;100.00
5484;BME280;2764;48.794;8.326;2023-02-19T01:31:03;77389.91;;;-140.34;100.00
5484;BME280;2764;48.794;8.326;2023-02-19T01:32:07;77395.94;;;-140.34;100.00
5484;BME280;2764;48.794;8.326;2023-02-19T01:33:09;77395.94;;;-140.34;100.00
5484;BME280;2764;48.794;8.326;2023-02-19T01:34:11;77399.97;;;-140.34;100.00
5484;BME280;2764;48.794;8.326;2023-02-19T01:35:14;77393.91;;;-140.34;100.00
5484;BME280;2764;48.794;8.326;2023-02-19T01:36:18;77395.94;;;-140.34;100.00
5484;BME280;2764;48.794;8.326;2023-02-19T01:37:20;77389.91;;;-140.34;100.00
5484;BME280;2764;48.794;8.326;2023-02-19T01:38:21;77389.91;;;-140.34;100.00
5484;BME280;2764;48.794;8.326;2023-02-19T01:39:23;77387.88;;;-140.34;100.00
5484;BME280;2764;48.794;8.326;2023-02-19T01:40:25;77387.88;;;-140.34;100.00
5484;BME280;2764;48.794;8.326;2023-02-19T01:41:27;77399.97;;;-140.34;100.00
5484;BME280;2764;48.794;8.326;2023-02-19T01:42:29;77387.88;;;-140.34;100.00
5484;BME280;2764;48.794;8.326;2023-02-19T01:43:32;77389.91;;;-140.34;100.00
5484;BME280;2764;48.794;8.326;2023-02-19T01:45:42;77389.91;;;-140.34;100.00
5484;BME280;2764;48.794;8.326;2023-02-19T01:46:45;77391.91;;;-140.34;100.00
5484;BME280;2764;48.794;8.326;2023-02-19T01:47:56;77391.91;;;-140.34;100.00
5484;BME280;2764;48.794;8.326;2023-02-19T01:50:29;77397.94;;;-140.34;100.00
5484;BME280;2764;48.794;8.326;2023-02-19T01:51:32;77391.91;;;-140.34;100.00
5484;BME280;2764;48.794;8.326;2023-02-19T01:52:36;77395.94;;;-140.34;100.00
5484;BME280;2764;48.794;8.326;2023-02-19T01:53:44;77401.97;;;-140.34;100.00
5484;BME280;2764;48.794;8.326;2023-02-19T01:54:47;77412.03;;;-140.34;100.00
5484;BME280;2764;48.794;8.326;2023-02-19T01:55:54;77408.00;;;-140.34;100.00
5484;BME280;2764;48.794;8.326;2023-02-19T01:56:59;77399.97;;;-140.34;100.00
5484;BME280;2764;48.794;8.326;2023-02-19T01:58:03;77416.03;;;-140.34;100.00
5484;BME280;2764;48.794;8.326;2023-02-19T01:59:06;77408.00;;;-140.34;100.00
5484;BME280;2764;48.794;8.326;2023-02-19T02:00:11;77412.03;;;-140.34;100.00
5484;BME280;2764;48.794;8.326;2023-02-19T02:01:14;77414.03;;;-140.34;100.00
5484;BME280;2764;48.794;8.326;2023-02-19T02:02:16;77418.06;;;-140.34;100.00
5484;BME280;2764;48.794;8.326;2023-02-19T02:03:18;77410.00;;;-140.34;100.00
5484;BME280;2764;48.794;8.326;2023-02-19T02:04:21;77403.97;;;-140.34;100.00
5484;BME280;2764;48.794;8.326;2023-02-19T02:05:35;77406.00;;;-140.34;100.00
5484;BME280;2764;48.794;8.326;2023-02-19T02:06:51;77416.03;;;-140.34;100.00
5484;BME280;2764;48.794;8.326;2023-02-19T02:07:54;77412.03;;;-140.34;100.00
5484;BME280;2764;48.794;8.326;2023-02-19T02:09:17;77397.94;;;-140.34;100.00
5484;BME280;2764;48.794;8.326;2023-02-19T02:10:38;77416.03;;;-140.34;100.00
5484;BME280;2764;48.794;8.326;2023-02-19T02:11:48;77408.00;;;-140.34;100.00
5484;BME280;2764;48.794;8.326;2023-02-19T02:12:55;77395.94;;;-140.34;100.00
5484;BME280;2764;48.794;8.326;2023-02-19T02:13:57;77397.94;;;-140.34;100.00
5484;BME280;2764;48.794;8.326;2023-02-19T02:15:00;77414.03;;;-140.34;100.00
5484;BME280;2764;48.794;8.326;2023-02-19T02:17:30;77393.91;;;-140.34;100.00
5484;BME280;2764;48.794;8.326;2023-02-19T02:26:18;77381.84;;;-140.34;100.00
5484;BME280;2764;48.794;8.326;2023-02-19T02:29:11;77389.91;;;-140.34;100.00
5484;BME280;2764;48.794;8.326;2023-02-19T02:31:53;77395.94;;;-140.34;100.00
5484;BME280;2764;48.794;8.326;2023-02-19T02:33:59;77395.94;;;-140.34;100.00
5484;BME280;2764;48.794;8.326;2023-02-19T02:35:05;77397.94;;;-140.34;100.00
5484;BME280;2764;48.794;8.326;2023-02-19T02:36:16;77393.91;;;-140.34;100.00
5484;BME280;2764;48.794;8.326;2023-02-19T02:37:18;77393.91;;;-140.34;100.00
5484;BME280;2764;48.794;8.326;2023-02-19T02:38:24;77389.91;;;-140.34;100.00
5484;BME280;2764;48.794;8.326;2023-02-19T02:39:30;77389.91;;;-140.34;100.00
5484;BME280;2764;48.794;8.326;2023-02-19T02:40:33;77408.00;;;-140.34;100.00
5484;BME280;2764;48.794;8.326;2023-02-19T02:41:45;77393.91;;;-140.34;100.00
5484;BME280;2764;48.794;8.326;2023-02-19T02:42:50;77395.94;;;-140.34;100.00
5484;BME280;2764;48.794;8.326;2023-02-19T02:43:52;77399.97;;;-140.34;100.00
5484;BME280;2764;48.794;8.326;2023-02-19T02:44:56;77395.94;;;-140.34;100.00
5484;BME280;2764;48.794;8.326;2023-02-19T02:46:22;77399.97;;;-140.34;100.00
5484;BME280;2764;48.794;8.326;2023-02-19T02:47:25;77395.94;;;-140.34;100.00
5484;BME280;2764;48.794;8.326;2023-02-19T02:48:51;77397.94;;;-140.34;100.00
5484;BME280;2764;48.794;8.326;2023-02-19T02:49:56;77393.91;;;-140.34;100.00
5484;BME280;2764;48.794;8.326;2023-02-19T02:51:59;77395.94;;;-140.34;100.00
5484;BME280;2764;48.794;8.326;2023-02-19T02:53:05;77389.91;;;-140.34;100.00
5484;BME280;2764;48.794;8.326;2023-02-19T02:54:30;77391.91;;;-140.34;100.00
5484;BME280;2764;48.794;8.326;2023-02-19T02:55:53;77383.88;;;-140.34;100.00
5484;BME280;2764;48.794;8.326;2023-02-19T02:56:57;77379.84;;;-140.34;100.00
5484;BME280;2764;48.794;8.326;2023-02-19T02:58:00;77367.78;;;-140.34;100.00
5484;BME280;2764;48.794;8.326;2023-02-19T02:59:04;77377.84;;;-140.34;100.00
5484;BME280;2764;48.794;8.326;2023-02-19T03:00:09;77375.81;;;-140.34;100.00
5484;BME280;2764;48.794;8.326;2023-02-19T03:01:18;77391.91;;;-140.34;100.00
5484;BME280;2764;48.794;8.326;2023-02-19T03:02:41;77391.91;;;-140.34;100.00
5484;BME280;2764;48.794;8.326;2023-02-19T03:03:46;77393.91;;;-140.34;100.00
5484;BME280;2764;48.794;8.326;2023-02-19T03:06:21;77393.91;;;-140.34;100.00
5484;BME280;2764;48.794;8.326;2023-02-19T03:07:32;77385.88;;;-140.34;100.00
5484;BME280;2764;48.794;8.326;2023-02-19T03:09:43;77391.91;;;-140.34;100.00
5484;BME280;2764;48.794;8.326;2023-02-19T03:10:53;77393.91;;;-140.34;100.00
5484;BME280;2764;48.794;8.326;2023-02-19T03:12:01;77401.97;;;-140.34;100.00
5484;BME280;2764;48.794;8.326;2023-02-19T03:13:29;77408.00;;;-140.34;100.00
5484;BME280;2764;48.794;8.326;2023-02-19T03:14:55;77393.91;;;-140.34;100.00
5484;BME280;2764;48.794;8.326;2023-02-19T03:16:22;77395.94;;;-140.34;100.00
5484;BME280;2764;48.794;8.326;2023-02-19T03:17:49;77399.97;;;-140.34;100.00
5484;BME280;2764;48.794;8.326;2023-02-19T03:19:14;77395.94;;;-140.34;100.00
5484;BME280;2764;48.794;8.326;2023-02-19T03:20:22;77399.97;;;-140.34;100.00
5484;BME280;2764;48.794;8.326;2023-02-19T03:21:27;77397.94;;;-140.34;100.00
5484;BME280;2764;48.794;8.326;2023-02-19T03:22:32;77403.97;;;-140.34;100.00
5484;BME280;2764;48.794;8.326;2023-02-19T03:23:37;77414.03;;;-140.34;100.00
5484;BME280;2764;48.794;8.326;2023-02-19T03:25:13;77406.00;;;-140.34;100.00
5484;BME280;2764;48.794;8.326;2023-02-19T03:26:40;77395.94;;;-140.34;100.00
5484;BME280;2764;48.794;8.326;2023-02-19T03:27:47;77403.97;;;-140.34;100.00
5484;BME280;2764;48.794;8.326;2023-02-19T03:28:51;77408.00;;;-140.34;100.00
5484;BME280;2764;48.794;8.326;2023-02-19T03:30:34;77401.97;;;-140.34;100.00
5484;BME280;2764;48.794;8.326;2023-02-19T03:31:39;77406.00;;;-140.34;100.00
5484;BME280;2764;48.794;8.326;2023-02-19T03:32:47;77410.00;;;-140.34;100.00
5484;BME280;2764;48.794;8.326;2023-02-19T03:33:54;77412.03;;;-140.34;100.00
5484;BME280;2764;48.794;8.326;2023-02-19T03:35:05;77414.03;;;-140.34;100.00
5484;BME280;2764;48.794;8.326;2023-02-19T03:36:10;77422.06;;;-140.34;100.00
5484;BME280;2764;48.794;8.326;2023-02-19T03:37:18;77410.00;;;-140.34;100.00
5484;BME280;2764;48.794;8.326;2023-02-19T03:38:29;77412.03;;;-140.34;100.00
5484;BME280;2764;48.794;8.326;2023-02-19T03:39:35;77412.03;;;-140.34;100.00
5484;BME280;2764;48.794;8.326;2023-02-19T03:42:20;77416.03;;;-140.34;100.00
5484;BME280;2764;48.794;8.326;2023-02-19T03:43:51;77416.03;;;-140.34;100.00
5484;BME280;2764;48.794;8.326;2023-02-19T03:45:19;77420.06;;;-140.34;100.00
5484;BME280;2764;48.794;8.326;2023-02-19T03:46:44;77414.03;;;-140.34;100.00
5484;BME280;2764;48.794;8.326;2023-02-19T03:49:38;77416.03;;;-140.34;100.00
5484;BME280;2764;48.794;8.326;2023-02-19T03:52:37;77418.06;;;-140.34;100.00
5484;BME280;2764;48.794;8.326;2023-02-19T03:55:15;77422.06;;;-140.34;100.00
5484;BME280;2764;48.794;8.326;2023-02-19T03:56:38;77422.06;;;-140.34;100.00
5484;BME280;2764;48.794;8.326;2023-02-19T03:57:56;77420.06;;;-140.34;100.00
5484;BME280;2764;48.794;8.326;2023-02-19T03:59:39;77430.13;;;-140.34;100.00
5484;BME280;2764;48.794;8.326;2023-02-19T04:00:48;77436.16;;;-140.34;100.00
5484;BME280;2764;48.794;8.326;2023-02-19T04:01:59;77438.16;;;-140.34;100.00
5484;BME280;2764;48.794;8.326;2023-02-19T04:03:14;77440.19;;;-140.34;100.00
5484;BME280;2764;48.794;8.326;2023-02-19T04:05:12;77432.13;;;-140.34;100.00
5484;BME280;2764;48.794;8.326;2023-02-19T04:05:50;77438.16;;;-140.34;100.00
5484;BME280;2764;48.794;8.326;2023-02-19T04:06:55;77440.19;;;-140.34;100.00
5484;BME280;2764;48.794;8.326;2023-02-19T04:08:03;77446.22;;;-140.34;100.00
5484;BME280;2764;48.794;8.326;2023-02-19T04:09:10;77440.19;;;-140.34;100.00
5484;BME280;2764;48.794;8.326;2023-02-19T04:10:15;77442.19;;;-140.34;100.00
5484;BME280;2764;48.794;8.326;2023-02-19T04:11:23;77438.16;;;-140.34;100.00
5484;BME280;2764;48.794;8.326;2023-02-19T04:12:27;77436.16;;;-140.34;100.00
5484;BME280;2764;48.794;8.326;2023-02-19T04:13:37;77426.09;;;-140.34;100.00
5484;BME280;2764;48.794;8.326;2023-02-19T04:14:46;77432.13;;;-140.34;100.00
5484;BME280;2764;48.794;8.326;2023-02-19T04:15:53;77436.16;;;-140.34;100.00
5484;BME280;2764;48.794;8.326;2023-02-19T04:17:02;77450.22;;;-140.34;100.00
5484;BME280;2764;48.794;8.326;2023-02-19T04:18:08;77448.22;;;-140.34;100.00
5484;BME280;2764;48.794;8.326;2023-02-19T04:19:14;77448.22;;;-140.34;100.00
5484;BME280;2764;48.794;8.326;2023-02-19T04:20:18;77450.22;;;-140.34;100.00
5484;BME280;2764;48.794;8.326;2023-02-19T04:21:22;77452.25;;;-140.34;100.00
5484;BME280;2764;48.794;8.326;2023-02-19T04:22:25;77464.31;;;-140.34;100.00
5484;BME280;2764;48.794;8.326;2023-02-19T04:23:29;77460.28;;;-140.34;100.00
5484;BME280;2764;48.794;8.326;2023-02-19T04:24:41;77466.31;;;-140.34;100.00
5484;BME280;2764;48.794;8.326;2023-02-19T04:25:46;77458.28;;;-140.34;100.00
5484;BME280;2764;48.794;8.326;2023-02-19T04:26:51;77456.25;;;-140.34;100.00
5484;BME280;2764;48.794;8.326;2023-02-19T04:27:53;77462.28;;;-140.34;100.00
5484;BME280;2764;48.794;8.326;2023-02-19T04:28:56;77462.28;;;-140.34;100.00
5484;BME280;2764;48.794;8.326;2023-02-19T04:29:57;77464.31;;;-140.34;100.00
5484;BME280;2764;48.794;8.326;2023-02-19T04:31:00;77462.28;;;-140.34;100.00
5484;BME280;2764;48.794;8.326;2023-02-19T04:32:02;77470.34;;;-140.34;100.00
5484;BME280;2764;48.794;8.326;2023-02-19T04:33:06;77464.31;;;-140.34;100.00
5484;BME280;2764;48.794;8.326;2023-02-19T04:34:08;77468.34;;;-140.34;100.00
5484;BME280;2764;48.794;8.326;2023-02-19T04:35:09;77458.28;;;-140.34;100.00
5484;BME280;2764;48.794;8.326;2023-02-19T04:36:11;77466.31;;;-140.34;100.00
5484;BME280;2764;48.794;8.326;2023-02-19T04:37:13;77492.47;;;-140.34;100.00
5484;BME280;2764;48.794;8.326;2023-02-19T04:38:15;77470.34;;;-140.34;100.00
5484;BME280;2764;48.794;8.326;2023-02-19T04:39:17;77474.38;;;-140.34;100.00
5484;BME280;2764;48.794;8.326;2023-02-19T04:40:20;77478.38;;;-140.34;100.00
5484;BME280;2764;48.794;8.326;2023-02-19T04:41:25;77472.34;;;-140.34;100.00
5484;BME280;2764;48.794;8.326;2023-02-19T04:42:27;77480.41;;;-140.34;100.00
5484;BME280;2764;48.794;8.326;2023-02-19T04:43:29;77476.38;;;-140.34;100.00
5484;BME280;2764;48.794;8.326;2023-02-19T04:44:32;77478.38;;;-140.34;100.00
5484;BME280;2764;48.794;8.326;2023-02-19T04:45:40;77478.38;;;-140.34;100.00
5484;BME280;2764;48.794;8.326;2023-02-19T04:46:42;77484.41;;;-140.34;100.00
5484;BME280;2764;48.794;8.326;2023-02-19T04:47:44;77484.41;;;-140.34;100.00
5484;BME280;2764;48.794;8.326;2023-02-19T04:48:46;77478.38;;;-140.34;100.00
5484;BME280;2764;48.794;8.326;2023-02-19T04:49:51;77490.47;;;-140.34;100.00
5484;BME280;2764;48.794;8.326;2023-02-19T04:50:55;77488.44;;;-140.34;100.00
5484;BME280;2764;48.794;8.326;2023-02-19T04:51:59;77486.44;;;-140.34;100.00
5484;BME280;2764;48.794;8.326;2023-02-19T04:53:04;77484.41;;;-140.34;100.00
5484;BME280;2764;48.794;8.326;2023-02-19T04:54:06;77492.47;;;-140.34;100.00
5484;BME280;2764;48.794;8.326;2023-02-19T04:55:08;77492.47;;;-140.34;100.00
5484;BME280;2764;48.794;8.326;2023-02-19T04:56:13;77494.47;;;-140.34;100.00
5484;BME280;2764;48.794;8.326;2023-02-19T04:57:16;77492.47;;;-140.34;100.00
5484;BME280;2764;48.794;8.326;2023-02-19T04:58:19;77488.44;;;-140.34;100.00
5484;BME280;2764;48.794;8.326;2023-02-19T04:59:22;77494.47;;;-140.34;100.00
5484;BME280;2764;48.794;8.326;2023-02-19T05:00:23;77500.50;;;-140.34;100.00
5484;BME280;2764;48.794;8.326;2023-02-19T05:01:25;77500.50;;;-140.34;100.00
5484;BME280;2764;48.794;8.326;2023-02-19T05:02:27;77500.50;;;-140.34;100.00
5484;BME280;2764;48.794;8.326;2023-02-19T05:03:29;77492.47;;;-140.34;100.00
5484;BME280;2764;48.794;8.326;2023-02-19T05:04:31;77498.50;;;-140.34;100.00
5484;BME280;2764;48.794;8.326;2023-02-19T05:05:33;77504.53;;;-140.34;100.00
5484;BME280;2764;48.794;8.326;2023-02-19T05:06:35;77500.50;;;-140.34;100.00
5484;BME280;2764;48.794;8.326;2023-02-19T05:07:37;77498.50;;;-140.34;100.00
5484;BME280;2764;48.794;8.326;2023-02-19T05:08:39;77496.50;;;-140.34;100.00
5484;BME280;2764;48.794;8.326;2023-02-19T05:09:41;77508.56;;;-140.34;100.00
5484;BME280;2764;48.794;8.326;2023-02-19T05:10:44;77498.50;;;-140.34;100.00
5484;BME280;2764;48.794;8.326;2023-02-19T05:11:45;77498.50;;;-140.34;100.00
5484;BME280;2764;48.794;8.326;2023-02-19T05:12:48;77496.50;;;-140.34;100.00
5484;BME280;2764;48.794;8.326;2023-02-19T05:13:50;77504.53;;;-140.34;100.00
5484;BME280;2764;48.794;8.326;2023-02-19T05:14:52;77500.50;;;-140.34;100.00
5484;BME280;2764;48.794;8.326;2023-02-19T05:16:01;77502.53;;;-140.34;100.00
5484;BME280;2764;48.794;8.326;2023-02-19T05:17:04;77506.53;;;-140.34;100.00
5484;BME280;2764;48.794;8.326;2023-02-19T05:18:07;77500.50;;;-140.34;100.00
5484;BME280;2764;48.794;8.326;2023-02-19T05:19:11;77504.53;;;-140.34;100.00
5484;BME280;2764;48.794;8.326;2023-02-19T05:20:16;77514.59;;;-140.34;100.00
5484;BME280;2764;48.794;8.326;2023-02-19T05:21:19;77504.53;;;-140.34;100.00
5484;BME280;2764;48.794;8.326;2023-02-19T05:22:20;77508.56;;;-140.34;100.00
5484;BME280;2764;48.794;8.326;2023-02-19T05:23:23;77496.50;;;-140.34;100.00
5484;BME280;2764;48.794;8.326;2023-02-19T05:24:26;77498.50;;;-140.34;100.00
5484;BME280;2764;48.794;8.326;2023-02-19T05:25:29;77496.50;;;-140.34;100.00
5484;BME280;2764;48.794;8.326;2023-02-19T05:26:31;77494.47;;;-140.34;100.00
5484;BME280;2764;48.794;8.326;2023-02-19T05:27:33;77504.53;;;-140.34;100.00
5484;BME280;2764;48.794;8.326;2023-02-19T05:28:35;77512.56;;;-140.34;100.00
5484;BME280;2764;48.794;8.326;2023-02-19T05:29:37;77508.56;;;-140.34;100.00
5484;BME280;2764;48.794;8.326;2023-02-19T05:30:39;77512.56;;;-140.34;100.00
5484;BME280;2764;48.794;8.326;2023-02-19T05:31:45;77496.50;;;-140.34;100.00
5484;BME280;2764;48.794;8.326;2023-02-19T05:32:47;77514.59;;;-140.34;100.00
5484;BME280;2764;48.794;8.326;2023-02-19T05:33:49;77504.53;;;-140.34;100.00
5484;BME280;2764;48.794;8.326;2023-02-19T05:34:53;77508.56;;;-140.34;100.00
5484;BME280;2764;48.794;8.326;2023-02-19T05:35:57;77506.53;;;-140.34;100.00
5484;BME280;2764;48.794;8.326;2023-02-19T05:37:01;77512.56;;;-140.34;100.00
5484;BME280;2764;48.794;8.326;2023-02-19T05:38:03;77516.59;;;-140.34;100.00
5484;BME280;2764;48.794;8.326;2023-02-19T05:39:06;77512.56;;;-140.34;100.00
5484;BME280;2764;48.794;8.326;2023-02-19T05:40:10;77506.53;;;-140.34;100.00
5484;BME280;2764;48.794;8.326;2023-02-19T05:41:17;77496.50;;;-140.34;100.00
5484;BME280;2764;48.794;8.326;2023-02-19T05:42:19;77506.53;;;-140.34;100.00
5484;BME280;2764;48.794;8.326;2023-02-19T05:43:23;77508.56;;;-140.34;100.00
5484;BME280;2764;48.794;8.326;2023-02-19T05:44:25;77518.59;;;-140.34;100.00
5484;BME280;2764;48.794;8.326;2023-02-19T05:45:27;77506.53;;;-140.34;100.00
5484;BME280;2764;48.794;8.326;2023-02-19T05:46:30;77514.59;;;-140.34;100.00
5484;BME280;2764;48.794;8.326;2023-02-19T05:47:31;77504.53;;;-140.34;100.00
5484;BME280;2764;48.794;8.326;2023-02-19T05:48:33;77518.59;;;-140.34;100.00
5484;BME280;2764;48.794;8.326;2023-02-19T05:49:36;77512.56;;;-140.34;100.00
5484;BME280;2764;48.794;8.326;2023-02-19T05:50:38;77516.59;;;-140.34;100.00
5484;BME280;2764;48.794;8.326;2023-02-19T05:51:45;77514.59;;;-140.34;100.00
5484;BME280;2764;48.794;8.326;2023-02-19T05:52:50;77504.53;;;-140.34;100.00
5484;BME280;2764;48.794;8.326;2023-02-19T05:53:52;77508.56;;;-140.34;100.00
5484;BME280;2764;48.794;8.326;2023-02-19T05:54:54;77504.53;;;-140.34;100.00
5484;BME280;2764;48.794;8.326;2023-02-19T05:55:56;77522.63;;;-140.34;100.00
5484;BME280;2764;48.794;8.326;2023-02-19T05:56:58;77516.59;;;-140.34;100.00
5484;BME280;2764;48.794;8.326;2023-02-19T05:58:00;77506.53;;;-140.34;100.00
5484;BME280;2764;48.794;8.326;2023-02-19T05:59:05;77508.56;;;-140.34;100.00
5484;BME280;2764;48.794;8.326;2023-02-19T06:00:10;77508.56;;;-140.34;100.00
5484;BME280;2764;48.794;8.326;2023-02-19T06:01:16;77514.59;;;-140.34;100.00
5484;BME280;2764;48.794;8.326;2023-02-19T06:02:19;77508.56;;;-140.34;100.00
5484;BME280;2764;48.794;8.326;2023-02-19T06:03:21;77508.56;;;-140.34;100.00
5484;BME280;2764;48.794;8.326;2023-02-19T06:04:24;77504.53;;;-140.34;100.00
5484;BME280;2764;48.794;8.326;2023-02-19T06:05:26;77518.59;;;-140.34;100.00
5484;BME280;2764;48.794;8.326;2023-02-19T06:06:28;77532.69;;;-140.34;100.00
5484;BME280;2764;48.794;8.326;2023-02-19T06:07:31;77522.63;;;-140.34;100.00
5484;BME280;2764;48.794;8.326;2023-02-19T06:08:34;77528.66;;;-140.34;100.00
5484;BME280;2764;48.794;8.326;2023-02-19T06:09:37;77530.69;;;-140.34;100.00
5484;BME280;2764;48.794;8.326;2023-02-19T06:10:39;77536.72;;;-140.34;100.00
5484;BME280;2764;48.794;8.326;2023-02-19T06:11:45;77528.66;;;-140.34;100.00